createdAt,value
2016-02-27T00:00:42.187Z,980.79
2016-02-27T00:01:42.188Z,980.79
2016-02-27T00:02:42.191Z,980.79
2016-02-27T00:03:42.195Z,980.72
2016-02-27T00:04:42.166Z,980.7
2016-02-27T00:05:42.168Z,980.74
2016-02-27T00:06:42.155Z,980.73
2016-02-27T00:07:42.143Z,980.69
2016-02-27T00:08:42.146Z,980.66
2016-02-27T00:09:42.132Z,980.67
2016-02-27T00:10:42.135Z,980.72
2016-02-27T00:11:42.168Z,980.66
2016-02-27T00:12:42.125Z,980.69
2016-02-27T00:13:42.128Z,980.66
2016-02-27T00:14:42.099Z,980.67
2016-02-27T00:15:42.101Z,980.64
2016-02-27T00:16:42.089Z,980.62
2016-02-27T00:17:42.076Z,980.58
2016-02-27T00:18:42.095Z,980.63
2016-02-27T00:19:42.065Z,980.66
2016-02-27T00:20:42.068Z,980.67
2016-02-27T00:21:42.056Z,980.71
2016-02-27T00:22:42.042Z,980.71
2016-02-27T00:23:42.045Z,980.64
2016-02-27T00:24:42.032Z,980.64
2016-02-27T00:25:42.035Z,980.64
2016-02-27T00:26:42.022Z,980.63
2016-02-27T00:27:42.008Z,980.63
2016-02-27T00:28:42.011Z,980.61
2016-02-27T00:29:41.999Z,980.59
2016-02-27T00:30:42.001Z,980.55
2016-02-27T00:31:41.989Z,980.61
2016-02-27T00:32:41.991Z,980.53
2016-02-27T00:33:41.978Z,980.59
2016-02-27T00:34:41.966Z,980.54
2016-02-27T00:35:41.969Z,980.49
2016-02-27T00:36:41.955Z,980.56
2016-02-27T00:37:41.943Z,980.59
2016-02-27T00:38:41.945Z,980.57
2016-02-27T00:39:41.932Z,980.6
2016-02-27T00:40:41.935Z,980.57
2016-02-27T00:41:41.921Z,980.53
2016-02-27T00:42:41.909Z,980.55
2016-02-27T00:43:41.912Z,980.55
2016-02-27T00:44:41.898Z,980.53
2016-02-27T00:45:41.902Z,980.5
2016-02-27T00:46:41.904Z,980.52
2016-02-27T00:47:41.875Z,980.53
2016-02-27T00:48:41.879Z,980.51
2016-02-27T00:49:41.881Z,980.52
2016-02-27T00:50:41.852Z,980.49
2016-02-27T00:51:41.855Z,980.43
2016-02-27T00:52:41.842Z,980.4
2016-02-27T00:53:41.845Z,980.4
2016-02-27T00:54:41.831Z,980.36
2016-02-27T00:55:41.834Z,980.36
2016-02-27T00:56:41.822Z,980.37
2016-02-27T00:57:41.808Z,980.36
2016-02-27T00:58:41.811Z,980.31
2016-02-27T00:59:41.798Z,980.3
2016-02-27T01:00:41.785Z,980.29
2016-02-27T01:01:41.788Z,980.33
2016-02-27T01:02:41.775Z,980.37
2016-02-27T01:03:41.763Z,980.34
2016-02-27T01:04:41.765Z,980.33
2016-02-27T01:05:41.752Z,980.3
2016-02-27T01:06:41.755Z,980.36
2016-02-27T01:07:41.742Z,980.31
2016-02-27T01:08:41.744Z,980.37
2016-02-27T01:09:41.747Z,980.33
2016-02-27T01:10:41.735Z,980.36
2016-02-27T01:11:41.705Z,980.27
2016-02-27T01:12:41.708Z,980.28
2016-02-27T01:13:41.710Z,980.26
2016-02-27T01:14:41.698Z,980.27
2016-02-27T01:15:41.701Z,980.25
2016-02-27T01:16:41.688Z,980.23
2016-02-27T01:17:41.675Z,980.24
2016-02-27T01:18:41.677Z,980.23
2016-02-27T01:19:41.649Z,980.2
2016-02-27T01:20:41.652Z,980.19
2016-02-27T01:21:41.639Z,980.17
2016-02-27T01:22:41.642Z,980.16
2016-02-27T01:23:41.629Z,980.13
2016-02-27T01:24:41.631Z,980.14
2016-02-27T01:25:41.618Z,980.08
2016-02-27T01:26:41.605Z,980.07
2016-02-27T01:27:41.608Z,980.03
2016-02-27T01:28:41.610Z,980.05
2016-02-27T01:29:41.582Z,980.08
2016-02-27T01:30:41.586Z,980.09
2016-02-27T01:31:41.572Z,980.06
2016-02-27T01:32:41.574Z,980.02
2016-02-27T01:33:41.562Z,980.04
2016-02-27T01:34:41.564Z,980.05
2016-02-27T01:35:41.552Z,980.06
2016-02-27T01:36:41.538Z,980.05
2016-02-27T01:37:41.525Z,980.04
2016-02-27T01:38:41.528Z,980.02
2016-02-27T01:39:41.515Z,980.06
2016-02-27T01:40:41.518Z,980.03
2016-02-27T01:41:41.505Z,980.06
2016-02-27T01:42:41.492Z,980.02
2016-02-27T01:43:41.495Z,980.02
2016-02-27T01:44:41.482Z,980.02
2016-02-27T01:45:41.469Z,980
2016-02-27T01:46:41.487Z,979.95
2016-02-27T01:47:41.459Z,979.96
2016-02-27T01:48:41.462Z,979.89
2016-02-27T01:49:41.448Z,979.91
2016-02-27T01:50:41.435Z,979.93
2016-02-27T01:51:41.437Z,979.9
2016-02-27T01:52:41.440Z,979.9
2016-02-27T01:53:41.428Z,979.9
2016-02-27T01:54:41.414Z,979.87
2016-02-27T01:55:41.403Z,979.86
2016-02-27T01:56:41.389Z,979.88
2016-02-27T01:57:41.392Z,979.92
2016-02-27T01:58:41.379Z,979.89
2016-02-27T01:59:41.381Z,979.87
2016-02-27T02:00:41.369Z,979.82
2016-02-27T02:01:41.355Z,979.84
2016-02-27T02:02:41.374Z,979.86
2016-02-27T02:03:41.345Z,979.84
2016-02-27T02:04:41.348Z,979.85
2016-02-27T02:05:41.336Z,979.89
2016-02-27T02:06:41.322Z,979.87
2016-02-27T02:07:41.325Z,979.87
2016-02-27T02:08:41.312Z,979.88
2016-02-27T02:09:41.299Z,979.91
2016-02-27T02:10:41.302Z,979.94
2016-02-27T02:11:41.288Z,979.92
2016-02-27T02:12:41.291Z,979.9
2016-02-27T02:13:41.278Z,979.87
2016-02-27T02:14:41.266Z,979.86
2016-02-27T02:15:41.269Z,979.86
2016-02-27T02:16:41.255Z,979.82
2016-02-27T02:17:41.243Z,979.78
2016-02-27T02:18:41.245Z,979.81
2016-02-27T02:19:41.232Z,979.81
2016-02-27T02:20:41.219Z,979.76
2016-02-27T02:21:41.222Z,979.75
2016-02-27T02:22:41.210Z,979.74
2016-02-27T02:23:41.212Z,979.76
2016-02-27T02:24:41.199Z,979.75
2016-02-27T02:25:41.186Z,979.75
2016-02-27T02:26:41.189Z,979.77
2016-02-27T02:27:41.176Z,979.77
2016-02-27T02:28:41.162Z,979.76
2016-02-27T02:29:41.165Z,979.73
2016-02-27T02:30:41.153Z,979.72
2016-02-27T02:31:41.139Z,979.75
2016-02-27T02:32:41.142Z,979.72
2016-02-27T02:33:41.130Z,979.73
2016-02-27T02:34:41.117Z,979.74
2016-02-27T02:35:41.119Z,979.72
2016-02-27T02:36:41.106Z,979.78
2016-02-27T02:37:41.108Z,979.78
2016-02-27T02:38:41.096Z,979.79
2016-02-27T02:39:41.098Z,979.76
2016-02-27T02:40:41.085Z,979.8
2016-02-27T02:41:41.073Z,979.79
2016-02-27T02:42:41.075Z,979.76
2016-02-27T02:43:41.063Z,979.81
2016-02-27T02:44:41.049Z,979.75
2016-02-27T02:45:41.052Z,979.78
2016-02-27T02:46:41.039Z,979.72
2016-02-27T02:47:41.026Z,979.74
2016-02-27T02:48:41.029Z,979.74
2016-02-27T02:49:41.016Z,979.76
2016-02-27T02:50:41.019Z,979.78
2016-02-27T02:51:41.006Z,979.78
2016-02-27T02:52:40.993Z,979.76
2016-02-27T02:53:40.980Z,979.75
2016-02-27T02:54:40.982Z,979.72
2016-02-27T02:55:40.970Z,979.73
2016-02-27T02:56:40.972Z,979.7
2016-02-27T02:57:40.956Z,979.77
2016-02-27T02:58:40.944Z,979.74
2016-02-27T02:59:40.947Z,979.72
2016-02-27T03:00:40.949Z,979.77
2016-02-27T03:01:40.921Z,979.72
2016-02-27T03:02:40.923Z,979.71
2016-02-27T03:03:40.911Z,979.68
2016-02-27T03:04:40.897Z,979.68
2016-02-27T03:05:40.900Z,979.65
2016-02-27T03:06:40.887Z,979.65
2016-02-27T03:07:40.889Z,979.62
2016-02-27T03:08:40.892Z,979.65
2016-02-27T03:09:40.864Z,979.64
2016-02-27T03:10:40.852Z,979.64
2016-02-27T03:11:40.854Z,979.62
2016-02-27T03:12:40.857Z,979.6
2016-02-27T03:13:40.844Z,979.62
2016-02-27T03:14:40.830Z,979.6
2016-02-27T03:15:40.833Z,979.58
2016-02-27T03:16:40.820Z,979.58
2016-02-27T03:17:40.824Z,979.56
2016-02-27T03:18:40.794Z,979.6
2016-02-27T03:19:40.797Z,979.59
2016-02-27T03:20:40.784Z,979.6
2016-02-27T03:21:40.771Z,979.58
2016-02-27T03:22:40.774Z,979.58
2016-02-27T03:23:40.761Z,979.55
2016-02-27T03:24:40.748Z,979.53
2016-02-27T03:25:40.751Z,979.54
2016-02-27T03:26:40.738Z,979.55
2016-02-27T03:27:40.725Z,979.52
2016-02-27T03:28:40.728Z,979.47
2016-02-27T03:29:40.731Z,979.51
2016-02-27T03:30:40.717Z,979.47
2016-02-27T03:31:40.704Z,979.48
2016-02-27T03:32:40.707Z,979.46
2016-02-27T03:33:40.709Z,979.44
2016-02-27T03:34:40.712Z,979.45
2016-02-27T03:35:40.668Z,979.43
2016-02-27T03:36:40.672Z,979.37
2016-02-27T03:37:40.674Z,979.41
2016-02-27T03:38:40.692Z,979.37
2016-02-27T03:39:40.648Z,979.39
2016-02-27T03:40:40.650Z,979.41
2016-02-27T03:41:40.653Z,979.41
2016-02-27T03:42:40.640Z,979.36
2016-02-27T03:43:40.627Z,979.38
2016-02-27T03:44:40.630Z,979.36
2016-02-27T03:45:40.602Z,979.37
2016-02-27T03:46:40.589Z,979.41
2016-02-27T03:47:40.576Z,979.4
2016-02-27T03:48:40.579Z,979.39
2016-02-27T03:49:40.566Z,979.4
2016-02-27T03:50:40.552Z,979.42
2016-02-27T03:51:40.554Z,979.42
2016-02-27T03:52:40.543Z,979.46
2016-02-27T03:53:40.529Z,979.44
2016-02-27T03:54:40.532Z,979.4
2016-02-27T03:55:40.519Z,979.38
2016-02-27T03:56:40.521Z,979.37
2016-02-27T03:57:40.509Z,979.38
2016-02-27T03:58:40.495Z,979.38
2016-02-27T03:59:40.483Z,979.41
2016-02-27T04:00:40.486Z,979.38
2016-02-27T04:01:40.473Z,979.4
2016-02-27T04:02:40.476Z,979.4
2016-02-27T04:03:40.462Z,979.41
2016-02-27T04:04:40.450Z,979.41
2016-02-27T04:05:40.452Z,979.42
2016-02-27T04:06:40.439Z,979.44
2016-02-27T04:07:40.425Z,979.46
2016-02-27T04:08:40.414Z,979.45
2016-02-27T04:09:40.417Z,979.44
2016-02-27T04:10:40.403Z,979.45
2016-02-27T04:11:40.406Z,979.4
2016-02-27T04:12:40.394Z,979.44
2016-02-27T04:13:40.380Z,979.42
2016-02-27T04:14:40.383Z,979.39
2016-02-27T04:15:40.369Z,979.39
2016-02-27T04:16:40.372Z,979.38
2016-02-27T04:17:40.359Z,979.38
2016-02-27T04:18:40.362Z,979.44
2016-02-27T04:19:40.334Z,979.37
2016-02-27T04:20:40.336Z,979.42
2016-02-27T04:21:40.324Z,979.34
2016-02-27T04:22:40.310Z,979.35
2016-02-27T04:23:40.329Z,979.35
2016-02-27T04:24:40.300Z,979.35
2016-02-27T04:25:40.288Z,979.33
2016-02-27T04:26:40.290Z,979.32
2016-02-27T04:27:40.277Z,979.32
2016-02-27T04:28:40.280Z,979.31
2016-02-27T04:29:40.267Z,979.3
2016-02-27T04:30:40.242Z,979.32
2016-02-27T04:31:40.232Z,979.28
2016-02-27T04:32:40.205Z,979.31
2016-02-27T04:33:40.180Z,979.34
2016-02-27T04:34:40.153Z,979.31
2016-02-27T04:35:40.151Z,979.29
2016-02-27T04:36:40.133Z,979.3
2016-02-27T04:37:40.115Z,979.32
2016-02-27T04:38:40.113Z,979.32
2016-02-27T04:39:40.094Z,979.31
2016-02-27T04:40:40.080Z,979.29
2016-02-27T04:41:40.081Z,979.32
2016-02-27T04:42:40.066Z,979.28
2016-02-27T04:43:40.068Z,979.3
2016-02-27T04:44:40.053Z,979.26
2016-02-27T04:45:40.040Z,979.3
2016-02-27T04:46:40.025Z,979.24
2016-02-27T04:47:40.027Z,979.26
2016-02-27T04:48:40.014Z,979.29
2016-02-27T04:49:40.000Z,979.28
2016-02-27T04:50:40.002Z,979.29
2016-02-27T04:51:39.989Z,979.28
2016-02-27T04:52:39.976Z,979.32
2016-02-27T04:53:39.979Z,979.28
2016-02-27T04:54:39.965Z,979.32
2016-02-27T04:55:39.951Z,979.32
2016-02-27T04:56:39.954Z,979.34
2016-02-27T04:57:39.942Z,979.34
2016-02-27T04:58:39.928Z,979.32
2016-02-27T04:59:39.931Z,979.32
2016-02-27T05:00:39.933Z,979.3
2016-02-27T05:01:39.921Z,979.3
2016-02-27T05:02:39.893Z,979.29
2016-02-27T05:03:39.895Z,979.29
2016-02-27T05:04:39.883Z,979.28
2016-02-27T05:05:39.869Z,979.35
2016-02-27T05:06:39.888Z,979.29
2016-02-27T05:07:39.858Z,979.3
2016-02-27T05:08:39.846Z,979.29
2016-02-27T05:09:39.849Z,979.3
2016-02-27T05:10:39.836Z,979.29
2016-02-27T05:11:39.839Z,979.31
2016-02-27T05:12:39.826Z,979.28
2016-02-27T05:13:39.813Z,979.31
2016-02-27T05:14:39.799Z,979.34
2016-02-27T05:15:39.802Z,979.31
2016-02-27T05:16:39.790Z,979.31
2016-02-27T05:17:39.776Z,979.32
2016-02-27T05:18:39.764Z,979.3
2016-02-27T05:19:39.766Z,979.31
2016-02-27T05:20:39.754Z,979.31
2016-02-27T05:21:39.756Z,979.31
2016-02-27T05:22:39.743Z,979.27
2016-02-27T05:23:39.730Z,979.27
2016-02-27T05:24:39.717Z,979.3
2016-02-27T05:25:39.720Z,979.33
2016-02-27T05:26:39.707Z,979.32
2016-02-27T05:27:39.695Z,979.32
2016-02-27T05:28:39.697Z,979.31
2016-02-27T05:29:39.684Z,979.29
2016-02-27T05:30:39.671Z,979.31
2016-02-27T05:31:39.673Z,979.26
2016-02-27T05:32:39.661Z,979.27
2016-02-27T05:33:39.647Z,979.23
2016-02-27T05:34:39.651Z,979.23
2016-02-27T05:35:39.638Z,979.24
2016-02-27T05:36:39.625Z,979.21
2016-02-27T05:37:39.611Z,979.2
2016-02-27T05:38:39.614Z,979.25
2016-02-27T05:39:39.601Z,979.23
2016-02-27T05:40:39.588Z,979.21
2016-02-27T05:41:39.591Z,979.22
2016-02-27T05:42:39.578Z,979.23
2016-02-27T05:43:39.566Z,979.23
2016-02-27T05:44:39.568Z,979.23
2016-02-27T05:45:39.555Z,979.19
2016-02-27T05:46:39.542Z,979.18
2016-02-27T05:47:39.529Z,979.25
2016-02-27T05:48:39.532Z,979.25
2016-02-27T05:49:39.518Z,979.25
2016-02-27T05:50:39.522Z,979.25
2016-02-27T05:51:39.509Z,979.26
2016-02-27T05:52:39.496Z,979.23
2016-02-27T05:53:39.482Z,979.19
2016-02-27T05:54:39.485Z,979.21
2016-02-27T05:55:39.473Z,979.23
2016-02-27T05:56:39.459Z,979.22
2016-02-27T05:57:39.447Z,979.22
2016-02-27T05:58:39.450Z,979.25
2016-02-27T05:59:39.437Z,979.22
2016-02-27T06:00:39.455Z,979.23
2016-02-27T06:01:39.458Z,979.22
2016-02-27T06:02:39.429Z,979.22
2016-02-27T06:03:39.400Z,979.24
2016-02-27T06:04:39.403Z,979.27
2016-02-27T06:05:39.406Z,979.25
2016-02-27T06:06:39.377Z,979.29
2016-02-27T06:07:39.380Z,979.31
2016-02-27T06:08:39.366Z,979.28
2016-02-27T06:09:39.370Z,979.3
2016-02-27T06:10:39.341Z,979.32
2016-02-27T06:11:39.344Z,979.34
2016-02-27T06:12:39.330Z,979.36
2016-02-27T06:13:39.318Z,979.36
2016-02-27T06:14:39.321Z,979.35
2016-02-27T06:15:39.307Z,979.35
2016-02-27T06:16:39.310Z,979.39
2016-02-27T06:17:39.297Z,979.44
2016-02-27T06:18:39.285Z,979.39
2016-02-27T06:19:39.271Z,979.41
2016-02-27T06:20:39.274Z,979.43
2016-02-27T06:21:39.277Z,979.44
2016-02-27T06:22:39.248Z,979.45
2016-02-27T06:23:39.251Z,979.45
2016-02-27T06:24:39.237Z,979.42
2016-02-27T06:25:39.226Z,979.44
2016-02-27T06:26:39.212Z,979.47
2016-02-27T06:27:39.199Z,979.45
2016-02-27T06:28:39.202Z,979.47
2016-02-27T06:29:39.204Z,979.53
2016-02-27T06:30:39.176Z,979.53
2016-02-27T06:31:39.178Z,979.55
2016-02-27T06:32:39.166Z,979.58
2016-02-27T06:33:39.153Z,979.55
2016-02-27T06:34:39.156Z,979.59
2016-02-27T06:35:39.142Z,979.6
2016-02-27T06:36:39.130Z,979.61
2016-02-27T06:37:39.133Z,979.61
2016-02-27T06:38:39.119Z,979.63
2016-02-27T06:39:39.106Z,979.63
2016-02-27T06:40:39.108Z,979.66
2016-02-27T06:41:39.097Z,979.7
2016-02-27T06:42:39.083Z,979.68
2016-02-27T06:43:39.085Z,979.7
2016-02-27T06:44:39.073Z,979.7
2016-02-27T06:45:39.060Z,979.7
2016-02-27T06:46:39.047Z,979.7
2016-02-27T06:47:39.049Z,979.68
2016-02-27T06:48:39.037Z,979.68
2016-02-27T06:49:39.024Z,979.69
2016-02-27T06:50:39.027Z,979.71
2016-02-27T06:51:39.014Z,979.7
2016-02-27T06:52:39.001Z,979.69
2016-02-27T06:53:39.004Z,979.72
2016-02-27T06:54:38.991Z,979.76
2016-02-27T06:55:38.993Z,979.76
2016-02-27T06:56:38.980Z,979.78
2016-02-27T06:57:38.967Z,979.78
2016-02-27T06:58:38.954Z,979.8
2016-02-27T06:59:38.941Z,979.82
2016-02-27T07:00:38.945Z,979.82
2016-02-27T07:01:38.931Z,979.83
2016-02-27T07:02:38.934Z,979.87
2016-02-27T07:03:38.921Z,979.79
2016-02-27T07:04:38.908Z,979.82
2016-02-27T07:05:38.911Z,979.89
2016-02-27T07:06:38.897Z,979.88
2016-02-27T07:07:38.885Z,979.89
2016-02-27T07:08:38.889Z,979.91
2016-02-27T07:09:38.875Z,979.87
2016-02-27T07:10:38.862Z,979.87
2016-02-27T07:11:38.849Z,979.94
2016-02-27T07:12:38.852Z,979.92
2016-02-27T07:13:38.854Z,979.93
2016-02-27T07:14:38.841Z,979.92
2016-02-27T07:15:38.828Z,979.97
2016-02-27T07:16:38.816Z,979.95
2016-02-27T07:17:38.819Z,979.93
2016-02-27T07:18:38.805Z,979.95
2016-02-27T07:19:38.808Z,979.91
2016-02-27T07:20:38.795Z,979.93
2016-02-27T07:21:38.782Z,979.92
2016-02-27T07:22:38.768Z,979.94
2016-02-27T07:23:38.803Z,979.94
2016-02-27T07:24:38.760Z,979.85
2016-02-27T07:25:38.746Z,979.89
2016-02-27T07:26:38.749Z,979.86
2016-02-27T07:27:38.735Z,979.85
2016-02-27T07:28:38.738Z,979.84
2016-02-27T07:29:38.725Z,979.82
2016-02-27T07:30:38.728Z,979.83
2016-02-27T07:31:38.715Z,979.84
2016-02-27T07:32:38.703Z,979.87
2016-02-27T07:33:38.690Z,979.86
2016-02-27T07:34:38.692Z,979.87
2016-02-27T07:35:38.695Z,979.89
2016-02-27T07:36:38.681Z,979.87
2016-02-27T07:37:38.669Z,979.9
2016-02-27T07:38:38.671Z,979.91
2016-02-27T07:39:38.658Z,979.9
2016-02-27T07:40:38.662Z,979.91
2016-02-27T07:41:38.648Z,979.93
2016-02-27T07:42:38.651Z,979.9
2016-02-27T07:43:38.638Z,979.91
2016-02-27T07:44:38.641Z,979.92
2016-02-27T07:45:38.643Z,979.88
2016-02-27T07:46:38.630Z,979.93
2016-02-27T07:47:38.633Z,979.9
2016-02-27T07:48:38.636Z,979.92
2016-02-27T07:49:38.639Z,979.92
2016-02-27T07:50:38.626Z,979.94
2016-02-27T07:51:38.629Z,979.94
2016-02-27T07:52:38.632Z,979.96
2016-02-27T07:53:38.634Z,979.97
2016-02-27T07:54:38.621Z,979.98
2016-02-27T07:55:38.623Z,979.99
2016-02-27T07:56:38.626Z,979.97
2016-02-27T07:57:38.629Z,979.97
2016-02-27T07:58:38.615Z,979.99
2016-02-27T07:59:38.618Z,979.99
2016-02-27T08:00:38.621Z,979.98
2016-02-27T08:01:38.624Z,980.02
2016-02-27T08:02:38.626Z,979.99
2016-02-27T08:03:38.629Z,980
2016-02-27T08:04:38.632Z,979.97
2016-02-27T08:05:38.651Z,979.97
2016-02-27T08:06:38.715Z,979.96
2016-02-27T08:07:38.625Z,980
2016-02-27T08:08:38.628Z,979.97
2016-02-27T08:09:38.630Z,979.97
2016-02-27T08:10:38.633Z,979.97
2016-02-27T08:11:38.635Z,979.92
2016-02-27T08:12:38.638Z,979.96
2016-02-27T08:13:38.625Z,979.91
2016-02-27T08:14:38.627Z,979.97
2016-02-27T08:15:38.646Z,979.97
2016-02-27T08:16:38.649Z,979.93
2016-02-27T08:17:38.636Z,979.94
2016-02-27T08:18:38.638Z,979.97
2016-02-27T08:19:38.641Z,979.97
2016-02-27T08:20:38.644Z,979.98
2016-02-27T08:21:38.647Z,979.95
2016-02-27T08:22:38.650Z,979.92
2016-02-27T08:23:38.652Z,979.93
2016-02-27T08:24:38.638Z,979.91
2016-02-27T08:25:38.642Z,979.95
2016-02-27T08:26:38.644Z,979.93
2016-02-27T08:27:38.647Z,979.95
2016-02-27T08:28:38.649Z,979.9
2016-02-27T08:29:38.652Z,979.88
2016-02-27T08:30:38.654Z,979.91
2016-02-27T08:31:38.658Z,979.94
2016-02-27T08:32:38.660Z,979.86
2016-02-27T08:33:38.663Z,979.88
2016-02-27T08:34:38.665Z,979.87
2016-02-27T08:35:38.653Z,979.87
2016-02-27T08:36:38.656Z,979.89
2016-02-27T08:37:38.659Z,979.85
2016-02-27T08:38:38.662Z,979.85
2016-02-27T08:39:38.664Z,979.83
2016-02-27T08:40:38.682Z,979.79
2016-02-27T08:41:38.654Z,979.84
2016-02-27T08:42:38.672Z,979.84
2016-02-27T08:43:38.659Z,979.8
2016-02-27T08:44:38.662Z,979.82
2016-02-27T08:45:38.649Z,979.84
2016-02-27T08:46:38.652Z,979.83
2016-02-27T08:47:38.654Z,979.84
2016-02-27T08:48:38.657Z,979.86
2016-02-27T08:49:38.643Z,979.87
2016-02-27T08:50:38.647Z,979.85
2016-02-27T08:51:38.649Z,979.83
2016-02-27T08:52:38.652Z,979.82
2016-02-27T08:53:38.639Z,979.87
2016-02-27T08:54:38.641Z,979.84
2016-02-27T08:55:38.629Z,979.81
2016-02-27T08:56:38.632Z,979.86
2016-02-27T08:57:38.634Z,979.86
2016-02-27T08:58:38.621Z,979.85
2016-02-27T08:59:38.623Z,979.8
2016-02-27T09:00:38.626Z,979.81
2016-02-27T09:01:38.613Z,979.79
2016-02-27T09:02:38.616Z,979.78
2016-02-27T09:03:38.619Z,979.8
2016-02-27T09:04:38.606Z,979.75
2016-02-27T09:05:38.609Z,979.79
2016-02-27T09:06:38.595Z,979.77
2016-02-27T09:07:38.598Z,979.79
2016-02-27T09:08:38.601Z,979.81
2016-02-27T09:09:38.588Z,979.75
2016-02-27T09:10:38.591Z,979.77
2016-02-27T09:11:38.578Z,979.74
2016-02-27T09:12:38.581Z,979.76
2016-02-27T09:13:38.568Z,979.77
2016-02-27T09:14:38.570Z,979.76
2016-02-27T09:15:38.573Z,979.74
2016-02-27T09:16:38.561Z,979.75
2016-02-27T09:17:38.547Z,979.68
2016-02-27T09:18:38.550Z,979.7
2016-02-27T09:19:38.552Z,979.75
2016-02-27T09:20:38.555Z,979.72
2016-02-27T09:21:38.542Z,979.76
2016-02-27T09:22:38.544Z,979.72
2016-02-27T09:23:38.532Z,979.73
2016-02-27T09:24:38.535Z,979.73
2016-02-27T09:25:38.537Z,979.7
2016-02-27T09:26:38.525Z,979.73
2016-02-27T09:27:38.512Z,979.73
2016-02-27T09:28:38.514Z,979.78
2016-02-27T09:29:38.518Z,979.79
2016-02-27T09:30:38.504Z,979.79
2016-02-27T09:31:38.507Z,979.74
2016-02-27T09:32:38.493Z,979.79
2016-02-27T09:33:38.496Z,979.8
2016-02-27T09:34:38.498Z,979.86
2016-02-27T09:35:38.501Z,979.86
2016-02-27T09:36:38.489Z,979.86
2016-02-27T09:37:38.476Z,979.83
2016-02-27T09:38:38.479Z,979.81
2016-02-27T09:39:38.481Z,979.84
2016-02-27T09:40:38.468Z,979.86
2016-02-27T09:41:38.471Z,979.87
2016-02-27T09:42:38.458Z,979.87
2016-02-27T09:43:38.461Z,979.89
2016-02-27T09:44:38.464Z,979.88
2016-02-27T09:45:38.451Z,979.83
2016-02-27T09:46:38.453Z,979.83
2016-02-27T09:47:38.441Z,979.83
2016-02-27T09:48:38.443Z,979.81
2016-02-27T09:49:38.446Z,979.83
2016-02-27T09:50:38.433Z,979.83
2016-02-27T09:51:38.435Z,979.79
2016-02-27T09:52:38.438Z,979.82
2016-02-27T09:53:38.424Z,979.8
2016-02-27T09:54:38.428Z,979.79
2016-02-27T09:55:38.416Z,979.79
2016-02-27T09:56:38.418Z,979.74
2016-02-27T09:57:38.421Z,979.81
2016-02-27T09:58:38.408Z,979.78
2016-02-27T09:59:38.410Z,979.83
2016-02-27T10:00:38.397Z,979.83
2016-02-27T10:01:38.399Z,979.83
2016-02-27T10:02:38.402Z,979.83
2016-02-27T10:03:38.405Z,979.83
2016-02-27T10:04:38.392Z,979.79
2016-02-27T10:05:38.396Z,979.84
2016-02-27T10:06:38.382Z,979.83
2016-02-27T10:07:38.384Z,979.83
2016-02-27T10:08:38.388Z,979.84
2016-02-27T10:09:38.375Z,979.85
2016-02-27T10:10:38.378Z,979.88
2016-02-27T10:11:38.380Z,979.88
2016-02-27T10:12:38.367Z,979.86
2016-02-27T10:13:38.370Z,979.84
2016-02-27T10:14:38.356Z,979.85
2016-02-27T10:15:38.359Z,979.85
2016-02-27T10:16:38.362Z,979.91
2016-02-27T10:17:38.350Z,979.93
2016-02-27T10:18:38.352Z,979.92
2016-02-27T10:19:38.355Z,979.91
2016-02-27T10:20:38.342Z,979.89
2016-02-27T10:21:38.360Z,979.94
2016-02-27T10:22:38.347Z,979.86
2016-02-27T10:23:38.333Z,979.83
2016-02-27T10:24:38.336Z,979.9
2016-02-27T10:25:38.339Z,979.94
2016-02-27T10:26:38.327Z,979.93
2016-02-27T10:27:38.329Z,979.99
2016-02-27T10:28:38.332Z,979.96
2016-02-27T10:29:38.319Z,979.98
2016-02-27T10:30:38.321Z,979.94
2016-02-27T10:31:38.324Z,979.96
2016-02-27T10:32:38.312Z,979.94
2016-02-27T10:33:38.314Z,979.9
2016-02-27T10:34:38.301Z,979.89
2016-02-27T10:35:38.304Z,979.85
2016-02-27T10:36:38.306Z,979.82
2016-02-27T10:37:38.293Z,979.85
2016-02-27T10:38:38.296Z,979.84
2016-02-27T10:39:38.298Z,979.82
2016-02-27T10:40:38.301Z,979.83
2016-02-27T10:41:38.304Z,979.76
2016-02-27T10:42:38.292Z,979.8
2016-02-27T10:43:38.294Z,979.82
2016-02-27T10:44:38.281Z,979.81
2016-02-27T10:45:38.284Z,979.82
2016-02-27T10:46:38.286Z,979.8
2016-02-27T10:47:38.273Z,979.84
2016-02-27T10:48:38.276Z,979.83
2016-02-27T10:49:38.279Z,979.83
2016-02-27T10:50:38.266Z,979.81
2016-02-27T10:51:38.269Z,979.85
2016-02-27T10:52:38.271Z,979.86
2016-02-27T10:53:38.258Z,979.89
2016-02-27T10:54:38.261Z,979.84
2016-02-27T10:55:38.264Z,979.87
2016-02-27T10:56:38.267Z,979.81
2016-02-27T10:57:38.254Z,979.83
2016-02-27T10:58:38.257Z,979.83
2016-02-27T10:59:38.244Z,979.84
2016-02-27T11:00:38.246Z,979.79
2016-02-27T11:01:38.249Z,979.77
2016-02-27T11:02:38.251Z,979.8
2016-02-27T11:03:38.254Z,979.76
2016-02-27T11:04:38.241Z,979.76
2016-02-27T11:05:38.243Z,979.8
2016-02-27T11:06:38.231Z,979.8
2016-02-27T11:07:38.234Z,979.78
2016-02-27T11:08:38.237Z,979.79
2016-02-27T11:09:38.239Z,979.8
2016-02-27T11:10:38.226Z,979.79
2016-02-27T11:11:38.228Z,979.75
2016-02-27T11:12:38.231Z,979.78
2016-02-27T11:13:38.218Z,979.74
2016-02-27T11:14:38.221Z,979.75
2016-02-27T11:15:38.223Z,979.74
2016-02-27T11:16:38.226Z,979.74
2016-02-27T11:17:38.214Z,979.76
2016-02-27T11:18:38.216Z,979.75
2016-02-27T11:19:38.219Z,979.76
2016-02-27T11:20:38.222Z,979.72
2016-02-27T11:21:38.209Z,979.71
2016-02-27T11:22:38.212Z,979.69
2016-02-27T11:23:38.199Z,979.7
2016-02-27T11:24:38.217Z,979.69
2016-02-27T11:25:38.205Z,979.7
2016-02-27T11:26:38.191Z,979.65
2016-02-27T11:27:38.194Z,979.67
2016-02-27T11:28:38.196Z,979.7
2016-02-27T11:29:38.200Z,979.66
2016-02-27T11:30:38.202Z,979.66
2016-02-27T11:31:38.189Z,979.64
2016-02-27T11:32:38.192Z,979.64
2016-02-27T11:33:38.193Z,979.65
2016-02-27T11:34:38.181Z,979.64
2016-02-27T11:35:38.184Z,979.64
2016-02-27T11:36:38.187Z,979.6
2016-02-27T11:37:38.190Z,979.64
2016-02-27T11:38:38.177Z,979.59
2016-02-27T11:39:38.179Z,979.57
2016-02-27T11:40:38.182Z,979.6
2016-02-27T11:41:38.168Z,979.59
2016-02-27T11:42:38.171Z,979.56
2016-02-27T11:43:38.174Z,979.54
2016-02-27T11:44:38.176Z,979.49
2016-02-27T11:45:38.180Z,979.5
2016-02-27T11:46:38.167Z,979.5
2016-02-27T11:47:38.170Z,979.48
2016-02-27T11:48:38.156Z,979.48
2016-02-27T11:49:38.159Z,979.5
2016-02-27T11:50:38.161Z,979.5
2016-02-27T11:51:38.164Z,979.44
2016-02-27T11:52:38.152Z,979.52
2016-02-27T11:53:38.155Z,979.49
2016-02-27T11:54:38.158Z,979.57
2016-02-27T11:55:38.160Z,979.52
2016-02-27T11:56:38.163Z,979.49
2016-02-27T11:57:38.149Z,979.49
2016-02-27T11:58:38.152Z,979.44
2016-02-27T11:59:38.139Z,979.47
2016-02-27T12:00:38.141Z,979.47
2016-02-27T12:01:38.145Z,979.4
2016-02-27T12:02:38.132Z,979.44
2016-02-27T12:03:38.135Z,979.45
2016-02-27T12:04:38.137Z,979.43
2016-02-27T12:05:38.140Z,979.42
2016-02-27T12:06:38.143Z,979.41
2016-02-27T12:07:38.145Z,979.38
2016-02-27T12:08:38.132Z,979.4
2016-02-27T12:09:38.135Z,979.43
2016-02-27T12:10:38.122Z,979.41
2016-02-27T12:11:38.124Z,979.4
2016-02-27T12:12:38.127Z,979.38
2016-02-27T12:13:38.129Z,979.39
2016-02-27T12:14:38.132Z,979.34
2016-02-27T12:15:38.120Z,979.36
2016-02-27T12:16:38.122Z,979.31
2016-02-27T12:17:38.126Z,979.28
2016-02-27T12:18:38.128Z,979.28
2016-02-27T12:19:38.131Z,979.22
2016-02-27T12:20:38.117Z,979.26
2016-02-27T12:21:38.120Z,979.16
2016-02-27T12:22:38.108Z,979.16
2016-02-27T12:23:38.111Z,979.12
2016-02-27T12:24:38.113Z,979.17
2016-02-27T12:25:38.131Z,979.14
2016-02-27T12:26:38.119Z,979.16
2016-02-27T12:27:38.152Z,979.16
2016-02-27T12:28:38.124Z,979.18
2016-02-27T12:29:38.127Z,979.13
2016-02-27T12:30:38.129Z,979.15
2016-02-27T12:31:38.116Z,979.16